createdAt,value
2022-12-16T00:02:25.661Z,24.48
2022-12-16T00:04:53.542Z,24.38
2022-12-16T00:07:21.279Z,24.60
2022-12-16T00:09:49.148Z,23.23
2022-12-16T00:12:17.050Z,23.80
2022-12-16T00:14:44.947Z,25.05
2022-12-16T00:17:12.791Z,23.45
2022-12-16T00:19:41.968Z,24.45
2022-12-16T00:22:09.816Z,26.10
2022-12-16T00:24:38.015Z,24.13
2022-12-16T00:27:07.414Z,22.83
2022-12-16T00:29:36.157Z,25.63
2022-12-16T00:32:04.171Z,22.98
2022-12-16T00:34:32.379Z,22.98
2022-12-16T00:37:01.527Z,23.70
2022-12-16T00:39:29.324Z,23.88
2022-12-16T00:41:57.128Z,23.75
2022-12-16T00:44:24.928Z,23.67
2022-12-16T00:46:52.664Z,24.13
2022-12-16T00:49:22.896Z,22.70
2022-12-16T00:51:50.830Z,23.88
2022-12-16T00:54:20.020Z,22.77
2022-12-16T00:56:47.729Z,23.95
2022-12-16T00:59:15.639Z,23.13
2022-12-16T01:01:43.707Z,21.98
2022-12-16T01:04:13.785Z,23.73
2022-12-16T01:06:41.579Z,23.33
2022-12-16T01:09:09.404Z,23.35
2022-12-16T01:11:38.594Z,25.10
2022-12-16T01:14:06.403Z,22.88
2022-12-16T01:16:35.060Z,23.35
2022-12-16T01:19:02.908Z,24.38
2022-12-16T01:21:31.056Z,22.80
2022-12-16T01:23:59.521Z,21.30
2022-12-16T01:26:27.324Z,22.85
2022-12-16T01:28:56.580Z,21.70
2022-12-16T01:31:25.219Z,22.77
2022-12-16T01:33:53.179Z,20.83
2022-12-16T01:36:21.052Z,21.80
2022-12-16T01:38:49.719Z,22.20
2022-12-16T01:41:19.236Z,22.33
2022-12-16T01:43:47.720Z,20.05
2022-12-16T01:46:24.292Z,21.77
2022-12-16T01:48:54.929Z,22.30
2022-12-16T01:51:27.525Z,20.50
2022-12-16T01:54:00.092Z,22.38
2022-12-16T01:56:29.572Z,20.92
2022-12-16T01:58:58.297Z,20.17
2022-12-16T02:01:27.751Z,21.10
2022-12-16T02:04:01.731Z,17.52
2022-12-16T02:06:29.762Z,21.27
2022-12-16T02:09:01.500Z,20.55
2022-12-16T02:11:56.917Z,20.15
2022-12-16T02:14:45.601Z,18.58
2022-12-16T02:17:22.382Z,26.63
2022-12-16T02:20:21.069Z,21.10
2022-12-16T02:23:06.289Z,21.30
2022-12-16T02:26:03.819Z,19.48
2022-12-16T02:28:55.087Z,19.60
2022-12-16T02:31:34.980Z,18.10
2022-12-16T02:34:19.024Z,21.30
2022-12-16T02:36:57.968Z,21.88
2022-12-16T02:39:31.263Z,21.88
2022-12-16T02:42:04.287Z,20.40
2022-12-16T02:44:41.278Z,22.30
2022-12-16T02:47:13.159Z,20.67
2022-12-16T02:49:48.809Z,21.02
2022-12-16T02:52:19.813Z,22.10
2022-12-16T02:54:49.360Z,21.00
2022-12-16T02:57:41.361Z,20.40
2022-12-16T03:00:12.880Z,20.55
2022-12-16T03:02:50.967Z,21.67
2022-12-16T03:05:24.453Z,20.92
2022-12-16T03:07:55.306Z,21.17
2022-12-16T03:10:28.327Z,21.05
2022-12-16T03:12:59.449Z,20.45
2022-12-16T03:15:42.185Z,21.02
2022-12-16T03:18:13.890Z,18.75
2022-12-16T03:20:46.590Z,20.63
2022-12-16T03:23:18.248Z,20.23
2022-12-16T03:25:49.510Z,20.60
2022-12-16T03:28:29.744Z,19.90
2022-12-16T03:31:06.594Z,22.25
2022-12-16T03:33:42.017Z,18.80
2022-12-16T03:36:13.573Z,19.20
2022-12-16T03:38:42.575Z,20.52
2022-12-16T03:41:10.688Z,20.63
2022-12-16T03:43:39.185Z,20.50
2022-12-16T03:46:09.206Z,20.10
2022-12-16T03:48:46.675Z,20.70
2022-12-16T03:51:14.752Z,20.73
2022-12-16T03:53:42.960Z,21.42
2022-12-16T03:56:11.463Z,21.45
2022-12-16T03:58:40.281Z,19.58
2022-12-16T04:01:09.439Z,19.65
2022-12-16T04:03:39.091Z,20.33
2022-12-16T04:06:07.358Z,20.23
2022-12-16T04:08:35.188Z,20.95
2022-12-16T04:11:20.336Z,20.40
2022-12-16T04:14:05.635Z,18.63
2022-12-16T04:16:51.137Z,20.00
2022-12-16T04:19:42.788Z,21.33
2022-12-16T04:22:33.743Z,20.92
2022-12-16T04:25:05.916Z,21.23
2022-12-16T04:27:33.634Z,22.38
2022-12-16T04:30:18.836Z,21.80
2022-12-16T04:33:04.695Z,20.17
2022-12-16T04:36:06.251Z,21.88
2022-12-16T04:38:51.754Z,21.75
2022-12-16T04:41:37.407Z,22.63
2022-12-16T04:44:23.617Z,19.35
2022-12-16T04:47:08.937Z,20.42
2022-12-16T04:49:54.431Z,20.40
2022-12-16T04:52:41.578Z,22.13
2022-12-16T04:55:27.978Z,22.48
2022-12-16T04:58:14.838Z,20.85
2022-12-16T05:01:00.665Z,21.50
2022-12-16T05:03:46.718Z,21.17
2022-12-16T05:06:32.746Z,20.10
2022-12-16T05:09:20.353Z,21.48
2022-12-16T05:12:05.847Z,20.48
2022-12-16T05:14:51.122Z,18.25
2022-12-16T05:17:37.035Z,19.90
2022-12-16T05:20:23.165Z,19.88
2022-12-16T05:23:23.116Z,21.20
2022-12-16T05:26:08.979Z,19.92
2022-12-16T05:28:54.291Z,20.25
2022-12-16T05:31:39.714Z,20.95
2022-12-16T05:34:26.698Z,18.92
2022-12-16T05:37:11.966Z,21.23
2022-12-16T05:39:57.311Z,20.67
2022-12-16T05:42:43.969Z,21.27
2022-12-16T05:45:29.321Z,20.00
2022-12-16T05:48:21.398Z,21.73
2022-12-16T05:51:06.790Z,22.50
2022-12-16T05:53:52.174Z,23.85
2022-12-16T05:56:45.526Z,21.88
2022-12-16T05:59:32.231Z,23.20
2022-12-16T06:02:14.053Z,22.08
2022-12-16T06:04:59.558Z,22.27
2022-12-16T06:07:44.955Z,21.27
2022-12-16T06:10:30.109Z,21.05
2022-12-16T06:13:30.390Z,20.15
2022-12-16T06:16:17.257Z,21.20
2022-12-16T06:19:02.448Z,20.73
2022-12-16T06:21:47.751Z,22.33
2022-12-16T06:24:33.083Z,20.15
2022-12-16T06:27:18.565Z,21.35
2022-12-16T06:30:03.566Z,22.42
2022-12-16T06:32:50.285Z,22.88
2022-12-16T06:35:35.451Z,20.55
2022-12-16T06:38:20.666Z,21.63
2022-12-16T06:41:05.947Z,20.85
2022-12-16T06:43:51.217Z,25.35
2022-12-16T06:46:36.603Z,22.48
2022-12-16T06:49:23.668Z,23.08
2022-12-16T06:52:09.092Z,23.77
2022-12-16T06:54:54.437Z,23.85
2022-12-16T06:57:39.589Z,25.92
2022-12-16T07:00:26.065Z,25.70
2022-12-16T07:03:17.224Z,24.15
2022-12-16T07:06:05.596Z,23.40
2022-12-16T07:08:59.461Z,24.00
2022-12-16T07:11:44.848Z,24.95
2022-12-16T07:14:30.197Z,23.40
2022-12-16T07:17:17.560Z,23.20
2022-12-16T07:20:03.066Z,22.00
2022-12-16T07:23:00.988Z,26.90
2022-12-16T07:25:48.380Z,25.60
2022-12-16T07:28:34.340Z,23.05
2022-12-16T07:31:19.846Z,22.00
2022-12-16T07:34:05.581Z,27.10
2022-12-16T07:36:50.803Z,23.40
2022-12-16T07:39:37.772Z,22.75
2022-12-16T07:42:25.773Z,23.58
2022-12-16T07:45:11.257Z,22.50
2022-12-16T07:47:57.141Z,25.15
2022-12-16T07:50:42.599Z,21.33
2022-12-16T07:53:31.394Z,22.58
2022-12-16T07:56:18.742Z,23.30
2022-12-16T07:59:04.063Z,21.77
2022-12-16T08:01:58.540Z,22.58
2022-12-16T08:04:44.377Z,24.30
2022-12-16T08:07:29.842Z,23.55
2022-12-16T08:10:15.356Z,23.05
2022-12-16T08:13:07.377Z,21.85
2022-12-16T08:15:52.992Z,22.85
2022-12-16T08:18:38.484Z,23.02
2022-12-16T08:21:23.849Z,21.83
2022-12-16T08:24:09.297Z,22.63
2022-12-16T08:26:55.083Z,21.77
2022-12-16T08:29:44.863Z,20.92
2022-12-16T08:32:31.199Z,23.00
2022-12-16T08:35:16.569Z,22.63
2022-12-16T08:38:07.620Z,23.77
2022-12-16T08:40:57.731Z,24.38
2022-12-16T08:43:43.109Z,22.58
2022-12-16T08:46:29.676Z,21.52
2022-12-16T08:52:00.803Z,23.40
2022-12-16T08:54:46.216Z,22.92
2022-12-16T08:57:31.773Z,23.58
2022-12-16T09:00:17.165Z,25.73
2022-12-16T09:03:04.382Z,25.58
2022-12-16T09:05:50.197Z,26.13
2022-12-16T09:08:36.607Z,25.50
2022-12-16T09:11:21.903Z,26.85
2022-12-16T09:14:07.106Z,23.85
2022-12-16T09:16:55.037Z,24.65
2022-12-16T09:19:42.145Z,25.33
2022-12-16T09:22:30.598Z,26.95
2022-12-16T09:25:16.212Z,26.80
2022-12-16T09:28:01.507Z,24.77
2022-12-16T09:30:49.918Z,24.00
2022-12-16T09:33:36.718Z,25.88
2022-12-16T09:36:30.137Z,24.90
2022-12-16T09:39:11.980Z,26.42
2022-12-16T09:42:01.979Z,25.42
2022-12-16T09:45:04.957Z,26.50
2022-12-16T09:47:57.782Z,27.63
2022-12-16T09:50:49.004Z,26.40
2022-12-16T09:53:39.140Z,27.27
2022-12-16T09:56:32.642Z,22.83
2022-12-16T09:59:21.530Z,24.02
2022-12-16T10:02:09.301Z,26.00
2022-12-16T10:04:54.577Z,24.80
2022-12-16T10:07:50.328Z,25.48
2022-12-16T10:10:48.029Z,25.88
2022-12-16T10:13:41.525Z,26.67
2022-12-16T10:16:36.387Z,23.77
2022-12-16T10:19:35.926Z,24.85
2022-12-16T10:22:31.236Z,22.88
2022-12-16T10:25:25.186Z,124.40
2022-12-16T10:28:21.271Z,24.75
2022-12-16T10:31:06.707Z,24.73
2022-12-16T10:33:52.214Z,23.17
2022-12-16T10:36:41.208Z,24.80
2022-12-16T10:39:42.542Z,24.35
2022-12-16T10:42:39.129Z,23.77
2022-12-16T10:45:35.841Z,25.48
2022-12-16T10:48:21.693Z,24.52
2022-12-16T10:51:07.019Z,27.75
2022-12-16T10:53:52.845Z,26.90
2022-12-16T10:56:55.819Z,26.52
2022-12-16T10:59:54.177Z,23.88
2022-12-16T11:02:44.289Z,26.27
2022-12-16T11:05:48.196Z,25.92
2022-12-16T11:08:45.372Z,26.55
2022-12-16T11:11:40.652Z,26.15
2022-12-16T11:14:39.325Z,27.48
2022-12-16T11:17:34.192Z,24.05
2022-12-16T11:20:37.579Z,24.83
2022-12-16T11:23:47.233Z,23.83
2022-12-16T11:26:37.219Z,25.83
2022-12-16T11:29:32.481Z,22.27
2022-12-16T11:32:23.943Z,24.58
2022-12-16T11:35:13.214Z,23.60
2022-12-16T11:38:07.627Z,22.48
2022-12-16T11:41:00.432Z,23.65
2022-12-16T11:43:48.801Z,22.20
2022-12-16T11:46:40.205Z,23.55
2022-12-16T11:49:32.939Z,24.15
2022-12-16T11:52:36.443Z,22.20
2022-12-16T11:56:04.531Z,23.90
2022-12-16T11:58:50.148Z,22.85
2022-12-16T12:01:45.580Z,21.75
2022-12-16T12:04:32.273Z,22.00
2022-12-16T12:07:44.970Z,22.75
2022-12-16T12:10:49.714Z,21.50
2022-12-16T12:13:56.393Z,22.55
2022-12-16T12:16:50.033Z,22.15
2022-12-16T12:19:39.288Z,23.05
2022-12-16T12:22:36.350Z,22.67
2022-12-16T12:25:28.837Z,23.13
2022-12-16T12:28:23.747Z,23.77
2022-12-16T12:31:23.133Z,20.27
2022-12-16T12:34:19.238Z,23.50
2022-12-16T12:37:12.205Z,22.70
2022-12-16T12:40:04.995Z,21.80
2022-12-16T12:42:56.730Z,19.33
2022-12-16T12:46:03.206Z,21.17
2022-12-16T12:48:57.790Z,20.48
2022-12-16T12:51:49.697Z,20.73
2022-12-16T12:54:44.176Z,19.63
2022-12-16T12:57:33.790Z,21.83
2022-12-16T13:00:22.096Z,19.70
2022-12-16T13:03:20.911Z,21.25
2022-12-16T13:06:07.081Z,21.58
2022-12-16T13:09:15.581Z,19.60
2022-12-16T13:12:34.641Z,19.13
2022-12-16T13:15:24.476Z,21.20
2022-12-16T13:18:49.718Z,20.45
2022-12-16T13:22:07.039Z,20.92
2022-12-16T13:25:05.025Z,20.27
2022-12-16T13:28:12.178Z,22.23
2022-12-16T13:30:59.876Z,19.50
2022-12-16T13:33:47.856Z,21.95
2022-12-16T13:36:37.268Z,21.35
2022-12-16T13:39:41.176Z,21.02
2022-12-16T13:43:05.087Z,20.83
2022-12-16T13:45:54.293Z,21.17
2022-12-16T13:48:56.518Z,21.88
2022-12-16T13:52:24.200Z,22.13
2022-12-16T13:55:32.369Z,21.33
2022-12-16T13:58:23.781Z,21.88
2022-12-16T14:01:23.193Z,21.02
2022-12-16T14:04:10.974Z,19.60
2022-12-16T14:07:02.136Z,20.42
2022-12-16T14:09:52.490Z,21.20
2022-12-16T14:13:03.848Z,22.40
2022-12-16T14:15:56.567Z,18.40
2022-12-16T14:18:52.729Z,22.33
2022-12-16T14:21:45.698Z,23.50
2022-12-16T14:24:46.317Z,23.33
2022-12-16T14:27:37.713Z,21.80
2022-12-16T14:30:35.691Z,22.48
2022-12-16T14:33:35.189Z,22.20
2022-12-16T14:36:20.655Z,22.33
2022-12-16T14:39:08.091Z,22.75
2022-12-16T14:41:53.684Z,20.20
2022-12-16T14:44:41.331Z,22.90
2022-12-16T14:47:35.865Z,22.98
2022-12-16T14:50:21.854Z,23.50
2022-12-16T14:53:07.265Z,20.50
2022-12-16T14:55:53.838Z,22.52
2022-12-16T14:58:41.701Z,21.70
2022-12-16T15:01:44.545Z,21.67
2022-12-16T15:04:40.175Z,22.70
2022-12-16T15:07:31.532Z,22.17
2022-12-16T15:10:18.442Z,21.13
2022-12-16T15:13:06.917Z,21.77
2022-12-16T15:15:55.926Z,23.85
2022-12-16T15:19:02.614Z,23.08
2022-12-16T15:22:03.651Z,21.55
2022-12-16T15:25:04.172Z,23.17
2022-12-16T15:27:54.761Z,23.13
2022-12-16T15:30:56.856Z,23.00
2022-12-16T15:33:45.140Z,23.73
2022-12-16T15:36:42.437Z,22.42
2022-12-16T15:39:36.254Z,22.92
2022-12-16T15:42:22.238Z,23.58
2022-12-16T15:45:09.741Z,19.42
2022-12-16T15:47:57.403Z,25.75
2022-12-16T15:50:45.503Z,26.48
2022-12-16T15:53:36.298Z,25.02
2022-12-16T15:56:23.827Z,24.73
2022-12-16T15:59:09.524Z,24.02
2022-12-16T16:02:05.099Z,25.38
2022-12-16T16:04:50.825Z,25.80
2022-12-16T16:07:38.633Z,25.08
2022-12-16T16:10:34.772Z,26.48
2022-12-16T16:13:21.733Z,25.83
2022-12-16T16:16:10.613Z,26.00
2022-12-16T16:18:59.001Z,24.27
2022-12-16T16:21:44.654Z,25.52
2022-12-16T16:24:31.407Z,24.52
2022-12-16T16:27:19.765Z,27.38
2022-12-16T16:30:08.350Z,25.55
2022-12-16T16:32:53.719Z,24.92
2022-12-16T16:35:39.352Z,26.45
2022-12-16T16:38:24.678Z,26.50
2022-12-16T16:41:20.687Z,30.17
2022-12-16T16:44:06.187Z,26.40
2022-12-16T16:46:55.492Z,26.23
2022-12-16T16:49:47.129Z,26.27
2022-12-16T16:52:34.303Z,27.02
2022-12-16T16:55:19.590Z,26.38
2022-12-16T16:58:04.999Z,27.42
2022-12-16T17:00:50.701Z,26.80
2022-12-16T17:03:38.393Z,25.15
2022-12-16T17:06:24.735Z,23.75
2022-12-16T17:09:10.130Z,24.08
2022-12-16T17:12:11.674Z,24.60
2022-12-16T17:14:53.517Z,26.67
2022-12-16T17:17:38.618Z,27.60
2022-12-16T17:20:36.679Z,26.90
2022-12-16T17:23:22.012Z,30.65
2022-12-16T17:26:08.566Z,26.80
2022-12-16T17:28:53.921Z,25.70
2022-12-16T17:31:39.588Z,27.73
2022-12-16T17:34:25.202Z,27.45
2022-12-16T17:37:11.540Z,29.38
2022-12-16T17:40:11.566Z,28.48
2022-12-16T17:42:56.867Z,29.92
2022-12-16T17:45:42.351Z,27.75
2022-12-16T17:48:27.711Z,30.17
2022-12-16T17:51:13.100Z,27.90
2022-12-16T17:54:02.115Z,29.50
2022-12-16T17:56:51.307Z,29.20
2022-12-16T17:59:36.300Z,30.98
2022-12-16T18:02:21.819Z,30.00
2022-12-16T18:05:07.250Z,32.55
2022-12-16T18:07:53.074Z,29.17
2022-12-16T18:10:43.196Z,30.55
2022-12-16T18:13:28.550Z,28.98
2022-12-16T18:16:14.112Z,30.05
2022-12-16T18:18:59.620Z,31.40
2022-12-16T18:21:44.988Z,34.60
2022-12-16T18:24:31.729Z,30.17
2022-12-16T18:27:19.570Z,31.90
2022-12-16T18:30:04.797Z,31.60
2022-12-16T18:32:51.410Z,34.00
2022-12-16T18:35:36.814Z,32.55
2022-12-16T18:38:22.435Z,35.65
2022-12-16T18:41:09.968Z,34.88
2022-12-16T18:43:57.379Z,33.05
2022-12-16T18:46:42.405Z,35.83
2022-12-16T18:49:42.452Z,33.75
2022-12-16T18:52:27.651Z,35.63
2022-12-16T18:55:15.629Z,37.38
2022-12-16T18:58:02.343Z,34.33
2022-12-16T19:00:49.292Z,34.10
2022-12-16T19:03:34.670Z,38.00
2022-12-16T19:06:19.757Z,36.28
2022-12-16T19:09:13.424Z,34.55
2022-12-16T19:11:58.795Z,34.90
2022-12-16T19:14:50.518Z,35.65
2022-12-16T19:17:37.613Z,33.75
2022-12-16T19:20:25.475Z,38.00
2022-12-16T19:23:14.033Z,35.45
2022-12-16T19:25:59.674Z,38.20
2022-12-16T19:28:45.107Z,35.97
2022-12-16T19:31:32.816Z,36.58
2022-12-16T19:34:19.827Z,33.17
2022-12-16T19:37:06.333Z,33.55
2022-12-16T19:39:51.958Z,33.13
2022-12-16T19:42:36.546Z,33.65
2022-12-16T19:45:23.859Z,31.25
2022-12-16T19:48:19.047Z,34.70
2022-12-16T19:51:05.903Z,35.00
2022-12-16T19:53:51.264Z,36.05
2022-12-16T19:56:40.071Z,35.33
2022-12-16T19:59:33.957Z,32.92
2022-12-16T20:02:18.825Z,35.80
2022-12-16T20:05:05.734Z,36.00
2022-12-16T20:07:52.939Z,34.97
2022-12-16T20:10:41.741Z,36.50
2022-12-16T20:13:30.083Z,36.97
2022-12-16T20:16:25.313Z,37.83
2022-12-16T20:19:10.666Z,39.13
2022-12-16T20:21:57.529Z,43.95
2022-12-16T20:24:45.939Z,50.15
2022-12-16T20:27:31.904Z,44.83
2022-12-16T20:30:17.247Z,49.20
2022-12-16T20:33:09.289Z,42.00
2022-12-16T20:36:06.162Z,41.10
2022-12-16T20:38:53.431Z,42.05
2022-12-16T20:41:44.380Z,40.85
2022-12-16T20:44:29.883Z,41.90
2022-12-16T20:47:18.411Z,41.28
2022-12-16T20:50:04.388Z,44.05
2022-12-16T20:52:49.678Z,40.35
2022-12-16T20:55:35.004Z,40.95
2022-12-16T20:58:18.416Z,37.50
2022-12-16T21:01:03.761Z,35.47
2022-12-16T21:03:49.287Z,42.97
2022-12-16T21:06:34.693Z,39.72
2022-12-16T21:09:23.204Z,47.00
2022-12-16T21:12:08.956Z,45.35
2022-12-16T21:14:55.635Z,42.40
2022-12-16T21:17:44.889Z,41.22
2022-12-16T21:20:30.302Z,42.92
2022-12-16T21:23:19.172Z,41.33
2022-12-16T21:26:04.579Z,39.88
2022-12-16T21:28:50.036Z,41.20
2022-12-16T21:31:37.103Z,42.72
2022-12-16T21:34:23.094Z,43.95
2022-12-16T21:37:09.357Z,41.40
2022-12-16T21:39:54.810Z,42.28
2022-12-16T21:42:44.421Z,40.25
2022-12-16T21:45:30.183Z,43.20
2022-12-16T21:48:16.851Z,40.50
2022-12-16T21:51:02.456Z,43.67
2022-12-16T21:53:48.833Z,44.63
2022-12-16T21:56:57.472Z,40.33
2022-12-16T21:59:48.532Z,41.97
2022-12-16T22:02:46.188Z,45.03
2022-12-16T22:05:33.106Z,45.03
2022-12-16T22:08:27.395Z,45.05
2022-12-16T22:11:12.820Z,41.83
2022-12-16T22:13:58.156Z,45.00
2022-12-16T22:16:45.922Z,45.88
2022-12-16T22:19:31.165Z,44.63
2022-12-16T22:22:18.041Z,43.75
2022-12-16T22:25:03.663Z,45.63
2022-12-16T22:27:49.215Z,45.15
2022-12-16T22:30:35.679Z,46.97
2022-12-16T22:33:20.972Z,46.58
2022-12-16T22:36:08.710Z,49.38
2022-12-16T22:38:56.489Z,47.70
2022-12-16T22:41:41.691Z,41.22
2022-12-16T22:44:27.141Z,49.20
2022-12-16T22:47:17.916Z,45.83
2022-12-16T22:50:03.379Z,46.95
2022-12-16T22:52:48.882Z,48.90
2022-12-16T22:55:34.519Z,44.83
2022-12-16T22:58:25.653Z,42.47
2022-12-16T23:01:12.388Z,42.30
2022-12-16T23:04:06.249Z,46.38
2022-12-16T23:06:51.997Z,44.45
2022-12-16T23:09:37.639Z,41.25
2022-12-16T23:12:24.866Z,41.17
2022-12-16T23:15:15.262Z,43.47
2022-12-16T23:18:00.721Z,42.20
2022-12-16T23:20:46.603Z,41.15
2022-12-16T23:23:31.927Z,41.38
2022-12-16T23:26:19.413Z,47.58
2022-12-16T23:29:09.605Z,44.50
2022-12-16T23:31:56.597Z,42.65
2022-12-16T23:34:56.648Z,42.90
2022-12-16T23:37:42.114Z,44.97
2022-12-16T23:40:28.611Z,39.80
2022-12-16T23:43:13.985Z,41.22
2022-12-16T23:46:01.780Z,39.88
2022-12-16T23:48:47.049Z,40.63
2022-12-16T23:51:32.609Z,40.25
2022-12-16T23:54:17.528Z,39.78
2022-12-16T23:57:03.080Z,43.08
2022-12-16T23:59:48.268Z,37.53
